sensor_id;sensor_type;location;lat;lon;timestamp;P1;durP1;ratioP1;P2;durP2;ratioP2
53598;SDS011;39485;45.702;11.364;2022-12-18T00:01:31;0.50;;;0.50;;
53598;SDS011;39485;45.702;11.364;2022-12-18T00:03:59;0.37;;;0.37;;
53598;SDS011;39485;45.702;11.364;2022-12-18T00:06:26;0.30;;;0.30;;
53598;SDS011;39485;45.702;11.364;2022-12-18T00:08:54;0.17;;;0.17;;
53598;SDS011;39485;45.702;11.364;2022-12-18T00:11:22;1.17;;;1.10;;
53598;SDS011;39485;45.702;11.364;2022-12-18T00:13:50;0.37;;;0.37;;
53598;SDS011;39485;45.702;11.364;2022-12-18T00:16:17;0.33;;;0.33;;
53598;SDS011;39485;45.702;11.364;2022-12-18T00:18:53;0.40;;;0.40;;
53598;SDS011;39485;45.702;11.364;2022-12-18T00:21:24;0.27;;;0.27;;
53598;SDS011;39485;45.702;11.364;2022-12-18T00:23:50;0.63;;;0.63;;
53598;SDS011;39485;45.702;11.364;2022-12-18T00:26:17;0.57;;;0.57;;
53598;SDS011;39485;45.702;11.364;2022-12-18T00:28:48;1.00;;;0.67;;
53598;SDS011;39485;45.702;11.364;2022-12-18T00:31:15;0.70;;;0.70;;
53598;SDS011;39485;45.702;11.364;2022-12-18T00:33:43;0.17;;;0.17;;
53598;SDS011;39485;45.702;11.364;2022-12-18T00:36:09;1.33;;;0.93;;
53598;SDS011;39485;45.702;11.364;2022-12-18T00:38:40;0.20;;;0.20;;
53598;SDS011;39485;45.702;11.364;2022-12-18T00:41:07;0.37;;;0.37;;
53598;SDS011;39485;45.702;11.364;2022-12-18T00:43:33;0.30;;;0.30;;
53598;SDS011;39485;45.702;11.364;2022-12-18T00:45:59;0.67;;;0.67;;
53598;SDS011;39485;45.702;11.364;2022-12-18T00:48:25;0.60;;;0.60;;
53598;SDS011;39485;45.702;11.364;2022-12-18T00:50:51;0.73;;;0.73;;
53598;SDS011;39485;45.702;11.364;2022-12-18T00:53:17;0.40;;;0.40;;
53598;SDS011;39485;45.702;11.364;2022-12-18T00:55:45;0.20;;;0.20;;
53598;SDS011;39485;45.702;11.364;2022-12-18T00:58:12;0.70;;;0.70;;
53598;SDS011;39485;45.702;11.364;2022-12-18T01:00:39;0.30;;;0.30;;
53598;SDS011;39485;45.702;11.364;2022-12-18T01:03:05;0.30;;;0.30;;
53598;SDS011;39485;45.702;11.364;2022-12-18T01:05:31;0.27;;;0.27;;
53598;SDS011;39485;45.702;11.364;2022-12-18T01:07:57;0.53;;;0.53;;
53598;SDS011;39485;45.702;11.364;2022-12-18T01:10:24;0.20;;;0.20;;
53598;SDS011;39485;45.702;11.364;2022-12-18T01:12:50;2.13;;;1.30;;
53598;SDS011;39485;45.702;11.364;2022-12-18T01:15:16;0.60;;;0.60;;
53598;SDS011;39485;45.702;11.364;2022-12-18T01:17:42;0.27;;;0.27;;
53598;SDS011;39485;45.702;11.364;2022-12-18T01:20:08;3.50;;;1.13;;
53598;SDS011;39485;45.702;11.364;2022-12-18T01:22:36;0.73;;;0.67;;
53598;SDS011;39485;45.702;11.364;2022-12-18T01:25:02;0.30;;;0.30;;
53598;SDS011;39485;45.702;11.364;2022-12-18T01:27:29;0.93;;;0.63;;
53598;SDS011;39485;45.702;11.364;2022-12-18T01:29:55;1.03;;;0.97;;
53598;SDS011;39485;45.702;11.364;2022-12-18T01:32:21;0.20;;;0.20;;
53598;SDS011;39485;45.702;11.364;2022-12-18T01:34:47;0.50;;;0.50;;
53598;SDS011;39485;45.702;11.364;2022-12-18T01:37:12;0.60;;;0.60;;
53598;SDS011;39485;45.702;11.364;2022-12-18T01:39:38;0.40;;;0.40;;
53598;SDS011;39485;45.702;11.364;2022-12-18T01:42:09;0.27;;;0.27;;
53598;SDS011;39485;45.702;11.364;2022-12-18T01:52:51;0.33;;;0.33;;
53598;SDS011;39485;45.702;11.364;2022-12-18T01:55:20;0.33;;;0.33;;
53598;SDS011;39485;45.702;11.364;2022-12-18T01:57:51;0.33;;;0.33;;
53598;SDS011;39485;45.702;11.364;2022-12-18T02:00:19;0.30;;;0.30;;
53598;SDS011;39485;45.702;11.364;2022-12-18T02:02:46;0.27;;;0.27;;
53598;SDS011;39485;45.702;11.364;2022-12-18T02:05:16;0.33;;;0.33;;
53598;SDS011;39485;45.702;11.364;2022-12-18T02:08:09;0.40;;;0.40;;
53598;SDS011;39485;45.702;11.364;2022-12-18T02:10:57;0.57;;;0.57;;
53598;SDS011;39485;45.702;11.364;2022-12-18T02:13:30;0.20;;;0.20;;
53598;SDS011;39485;45.702;11.364;2022-12-18T02:19:06;3.23;;;1.10;;
53598;SDS011;39485;45.702;11.364;2022-12-18T02:22:24;1.13;;;1.07;;
53598;SDS011;39485;45.702;11.364;2022-12-18T02:25:12;0.30;;;0.30;;
53598;SDS011;39485;45.702;11.364;2022-12-18T02:27:39;0.33;;;0.33;;
53598;SDS011;39485;45.702;11.364;2022-12-18T02:30:06;0.27;;;0.27;;
53598;SDS011;39485;45.702;11.364;2022-12-18T02:32:37;0.20;;;0.20;;
53598;SDS011;39485;45.702;11.364;2022-12-18T02:35:09;0.43;;;0.43;;
53598;SDS011;39485;45.702;11.364;2022-12-18T02:37:39;0.20;;;0.20;;
53598;SDS011;39485;45.702;11.364;2022-12-18T02:40:07;0.37;;;0.37;;
53598;SDS011;39485;45.702;11.364;2022-12-18T02:42:34;0.90;;;0.70;;
53598;SDS011;39485;45.702;11.364;2022-12-18T02:45:00;0.40;;;0.40;;
53598;SDS011;39485;45.702;11.364;2022-12-18T02:47:27;0.40;;;0.40;;
53598;SDS011;39485;45.702;11.364;2022-12-18T03:05:13;0.27;;;0.27;;
53598;SDS011;39485;45.702;11.364;2022-12-18T03:08:03;0.30;;;0.30;;
53598;SDS011;39485;45.702;11.364;2022-12-18T03:10:34;0.63;;;0.63;;
53598;SDS011;39485;45.702;11.364;2022-12-18T03:13:09;0.57;;;0.57;;
53598;SDS011;39485;45.702;11.364;2022-12-18T03:15:45;0.53;;;0.47;;
53598;SDS011;39485;45.702;11.364;2022-12-18T03:18:22;0.60;;;0.60;;
53598;SDS011;39485;45.702;11.364;2022-12-18T03:20:59;0.33;;;0.33;;
53598;SDS011;39485;45.702;11.364;2022-12-18T03:23:29;0.43;;;0.43;;
53598;SDS011;39485;45.702;11.364;2022-12-18T03:26:02;0.20;;;0.20;;
53598;SDS011;39485;45.702;11.364;2022-12-18T03:28:32;0.43;;;0.43;;
53598;SDS011;39485;45.702;11.364;2022-12-18T03:31:02;0.40;;;0.40;;
53598;SDS011;39485;45.702;11.364;2022-12-18T03:34:03;0.57;;;0.57;;
53598;SDS011;39485;45.702;11.364;2022-12-18T03:36:28;0.20;;;0.20;;
53598;SDS011;39485;45.702;11.364;2022-12-18T03:38:54;0.40;;;0.40;;
53598;SDS011;39485;45.702;11.364;2022-12-18T03:46:46;1.53;;;0.50;;
53598;SDS011;39485;45.702;11.364;2022-12-18T03:52:11;0.30;;;0.30;;
53598;SDS011;39485;45.702;11.364;2022-12-18T03:54:45;0.30;;;0.30;;
53598;SDS011;39485;45.702;11.364;2022-12-18T03:57:14;0.40;;;0.40;;
53598;SDS011;39485;45.702;11.364;2022-12-18T03:59:46;0.52;;;0.52;;
53598;SDS011;39485;45.702;11.364;2022-12-18T04:02:15;0.20;;;0.20;;
53598;SDS011;39485;45.702;11.364;2022-12-18T04:04:42;0.30;;;0.30;;
53598;SDS011;39485;45.702;11.364;2022-12-18T04:07:09;1.60;;;1.07;;
53598;SDS011;39485;45.702;11.364;2022-12-18T04:09:36;0.20;;;0.20;;
53598;SDS011;39485;45.702;11.364;2022-12-18T04:12:05;0.30;;;0.30;;
53598;SDS011;39485;45.702;11.364;2022-12-18T04:14:31;0.40;;;0.40;;
53598;SDS011;39485;45.702;11.364;2022-12-18T04:17:00;0.10;;;0.10;;
53598;SDS011;39485;45.702;11.364;2022-12-18T04:19:27;0.20;;;0.20;;
53598;SDS011;39485;45.702;11.364;2022-12-18T04:21:53;0.27;;;0.27;;
53598;SDS011;39485;45.702;11.364;2022-12-18T04:24:19;1.20;;;0.80;;
53598;SDS011;39485;45.702;11.364;2022-12-18T04:26:45;0.20;;;0.20;;
53598;SDS011;39485;45.702;11.364;2022-12-18T04:29:10;0.50;;;0.50;;
53598;SDS011;39485;45.702;11.364;2022-12-18T04:31:36;1.00;;;0.93;;
53598;SDS011;39485;45.702;11.364;2022-12-18T04:34:02;0.80;;;0.80;;
53598;SDS011;39485;45.702;11.364;2022-12-18T04:36:28;0.20;;;0.20;;
53598;SDS011;39485;45.702;11.364;2022-12-18T04:38:54;0.83;;;0.83;;
53598;SDS011;39485;45.702;11.364;2022-12-18T04:41:20;0.93;;;0.93;;
53598;SDS011;39485;45.702;11.364;2022-12-18T04:43:46;0.33;;;0.33;;
53598;SDS011;39485;45.702;11.364;2022-12-18T04:46:12;0.30;;;0.30;;
53598;SDS011;39485;45.702;11.364;2022-12-18T04:48:37;0.67;;;0.60;;
53598;SDS011;39485;45.702;11.364;2022-12-18T04:51:04;0.20;;;0.20;;
53598;SDS011;39485;45.702;11.364;2022-12-18T04:53:30;0.20;;;0.20;;
53598;SDS011;39485;45.702;11.364;2022-12-18T04:56:06;0.30;;;0.30;;
53598;SDS011;39485;45.702;11.364;2022-12-18T04:58:36;0.40;;;0.40;;
53598;SDS011;39485;45.702;11.364;2022-12-18T05:01:04;0.37;;;0.37;;
53598;SDS011;39485;45.702;11.364;2022-12-18T05:03:30;0.40;;;0.40;;
53598;SDS011;39485;45.702;11.364;2022-12-18T05:05:56;0.20;;;0.20;;
53598;SDS011;39485;45.702;11.364;2022-12-18T05:08:22;0.23;;;0.23;;
53598;SDS011;39485;45.702;11.364;2022-12-18T05:10:48;0.20;;;0.20;;
53598;SDS011;39485;45.702;11.364;2022-12-18T05:13:14;0.47;;;0.47;;
53598;SDS011;39485;45.702;11.364;2022-12-18T05:15:39;0.47;;;0.47;;
53598;SDS011;39485;45.702;11.364;2022-12-18T05:18:07;0.30;;;0.30;;
53598;SDS011;39485;45.702;11.364;2022-12-18T05:20:33;0.30;;;0.30;;
53598;SDS011;39485;45.702;11.364;2022-12-18T05:22:59;0.27;;;0.27;;
53598;SDS011;39485;45.702;11.364;2022-12-18T05:25:24;0.60;;;0.60;;
53598;SDS011;39485;45.702;11.364;2022-12-18T05:27:50;0.73;;;0.73;;
53598;SDS011;39485;45.702;11.364;2022-12-18T05:30:16;0.87;;;0.87;;
53598;SDS011;39485;45.702;11.364;2022-12-18T05:32:41;0.40;;;0.40;;
53598;SDS011;39485;45.702;11.364;2022-12-18T05:35:08;0.30;;;0.30;;
53598;SDS011;39485;45.702;11.364;2022-12-18T05:37:35;0.50;;;0.50;;
53598;SDS011;39485;45.702;11.364;2022-12-18T05:40:02;0.40;;;0.40;;
53598;SDS011;39485;45.702;11.364;2022-12-18T05:42:29;0.40;;;0.40;;
53598;SDS011;39485;45.702;11.364;2022-12-18T05:44:55;0.50;;;0.50;;
53598;SDS011;39485;45.702;11.364;2022-12-18T05:47:20;2.30;;;0.93;;
53598;SDS011;39485;45.702;11.364;2022-12-18T05:49:46;1.00;;;1.00;;
53598;SDS011;39485;45.702;11.364;2022-12-18T05:52:12;0.93;;;0.87;;
53598;SDS011;39485;45.702;11.364;2022-12-18T05:54:37;0.37;;;0.33;;
53598;SDS011;39485;45.702;11.364;2022-12-18T05:57:04;0.30;;;0.30;;
53598;SDS011;39485;45.702;11.364;2022-12-18T05:59:29;0.63;;;0.63;;
53598;SDS011;39485;45.702;11.364;2022-12-18T06:01:55;0.83;;;0.83;;
53598;SDS011;39485;45.702;11.364;2022-12-18T06:04:20;0.20;;;0.20;;
53598;SDS011;39485;45.702;11.364;2022-12-18T06:06:46;0.53;;;0.53;;
53598;SDS011;39485;45.702;11.364;2022-12-18T06:09:12;0.63;;;0.63;;
53598;SDS011;39485;45.702;11.364;2022-12-18T06:11:37;0.77;;;0.77;;
53598;SDS011;39485;45.702;11.364;2022-12-18T06:14:04;4.80;;;1.17;;
53598;SDS011;39485;45.702;11.364;2022-12-18T06:16:31;0.63;;;0.63;;
53598;SDS011;39485;45.702;11.364;2022-12-18T06:18:57;0.60;;;0.60;;
53598;SDS011;39485;45.702;11.364;2022-12-18T06:21:27;0.40;;;0.40;;
53598;SDS011;39485;45.702;11.364;2022-12-18T06:23:54;1.43;;;1.10;;
53598;SDS011;39485;45.702;11.364;2022-12-18T06:26:20;1.67;;;1.57;;
53598;SDS011;39485;45.702;11.364;2022-12-18T06:28:45;3.80;;;1.43;;
53598;SDS011;39485;45.702;11.364;2022-12-18T06:31:11;0.40;;;0.40;;
53598;SDS011;39485;45.702;11.364;2022-12-18T06:33:37;0.63;;;0.63;;
53598;SDS011;39485;45.702;11.364;2022-12-18T06:36:07;1.63;;;0.97;;
53598;SDS011;39485;45.702;11.364;2022-12-18T06:38:38;0.37;;;0.37;;
53598;SDS011;39485;45.702;11.364;2022-12-18T06:41:08;0.30;;;0.30;;
53598;SDS011;39485;45.702;11.364;2022-12-18T06:43:38;0.40;;;0.40;;
53598;SDS011;39485;45.702;11.364;2022-12-18T06:46:04;3.60;;;1.07;;
53598;SDS011;39485;45.702;11.364;2022-12-18T06:48:31;0.43;;;0.43;;
53598;SDS011;39485;45.702;11.364;2022-12-18T06:50:57;0.30;;;0.30;;
53598;SDS011;39485;45.702;11.364;2022-12-18T06:53:23;0.70;;;0.70;;
53598;SDS011;39485;45.702;11.364;2022-12-18T06:55:49;0.27;;;0.27;;
53598;SDS011;39485;45.702;11.364;2022-12-18T06:58:22;0.40;;;0.40;;
53598;SDS011;39485;45.702;11.364;2022-12-18T07:00:48;1.90;;;1.13;;
53598;SDS011;39485;45.702;11.364;2022-12-18T07:03:16;1.90;;;1.80;;
53598;SDS011;39485;45.702;11.364;2022-12-18T07:05:42;2.33;;;2.20;;
53598;SDS011;39485;45.702;11.364;2022-12-18T07:08:08;1.30;;;1.30;;
53598;SDS011;39485;45.702;11.364;2022-12-18T07:10:36;1.07;;;1.07;;
53598;SDS011;39485;45.702;11.364;2022-12-18T07:13:06;0.90;;;0.90;;
53598;SDS011;39485;45.702;11.364;2022-12-18T07:15:31;0.77;;;0.77;;
53598;SDS011;39485;45.702;11.364;2022-12-18T07:17:57;1.10;;;1.10;;
53598;SDS011;39485;45.702;11.364;2022-12-18T07:20:23;0.30;;;0.30;;
53598;SDS011;39485;45.702;11.364;2022-12-18T07:22:49;0.60;;;0.60;;
53598;SDS011;39485;45.702;11.364;2022-12-18T07:25:14;0.47;;;0.47;;
53598;SDS011;39485;45.702;11.364;2022-12-18T07:27:40;0.50;;;0.50;;
53598;SDS011;39485;45.702;11.364;2022-12-18T07:30:06;0.43;;;0.43;;
53598;SDS011;39485;45.702;11.364;2022-12-18T07:32:32;0.20;;;0.20;;
53598;SDS011;39485;45.702;11.364;2022-12-18T07:34:58;1.00;;;1.00;;
53598;SDS011;39485;45.702;11.364;2022-12-18T07:37:23;1.00;;;1.00;;
53598;SDS011;39485;45.702;11.364;2022-12-18T07:39:49;0.70;;;0.70;;
53598;SDS011;39485;45.702;11.364;2022-12-18T07:42:15;1.30;;;1.23;;
53598;SDS011;39485;45.702;11.364;2022-12-18T07:44:55;0.93;;;0.93;;
53598;SDS011;39485;45.702;11.364;2022-12-18T07:47:21;0.47;;;0.47;;
53598;SDS011;39485;45.702;11.364;2022-12-18T07:49:47;0.40;;;0.40;;
53598;SDS011;39485;45.702;11.364;2022-12-18T07:52:13;0.60;;;0.60;;
53598;SDS011;39485;45.702;11.364;2022-12-18T07:54:38;0.43;;;0.43;;
53598;SDS011;39485;45.702;11.364;2022-12-18T07:57:05;0.87;;;0.87;;
53598;SDS011;39485;45.702;11.364;2022-12-18T07:59:31;0.20;;;0.20;;
53598;SDS011;39485;45.702;11.364;2022-12-18T08:01:57;0.33;;;0.33;;
53598;SDS011;39485;45.702;11.364;2022-12-18T08:04:23;1.33;;;1.30;;
53598;SDS011;39485;45.702;11.364;2022-12-18T08:06:49;1.23;;;0.50;;
53598;SDS011;39485;45.702;11.364;2022-12-18T08:09:15;0.50;;;0.50;;
53598;SDS011;39485;45.702;11.364;2022-12-18T08:11:41;0.47;;;0.47;;
53598;SDS011;39485;45.702;11.364;2022-12-18T08:14:06;0.97;;;0.97;;
53598;SDS011;39485;45.702;11.364;2022-12-18T08:16:32;1.03;;;1.03;;
53598;SDS011;39485;45.702;11.364;2022-12-18T08:18:58;0.70;;;0.70;;
53598;SDS011;39485;45.702;11.364;2022-12-18T08:21:25;0.80;;;0.80;;
53598;SDS011;39485;45.702;11.364;2022-12-18T08:23:53;0.63;;;0.63;;
53598;SDS011;39485;45.702;11.364;2022-12-18T08:26:20;1.23;;;1.20;;
53598;SDS011;39485;45.702;11.364;2022-12-18T08:28:46;2.77;;;2.23;;
53598;SDS011;39485;45.702;11.364;2022-12-18T08:31:12;1.93;;;1.83;;
53598;SDS011;39485;45.702;11.364;2022-12-18T08:33:38;1.20;;;1.20;;
53598;SDS011;39485;45.702;11.364;2022-12-18T08:36:04;1.17;;;0.87;;
53598;SDS011;39485;45.702;11.364;2022-12-18T08:38:31;0.20;;;0.20;;
53598;SDS011;39485;45.702;11.364;2022-12-18T08:41:01;1.33;;;1.13;;
53598;SDS011;39485;45.702;11.364;2022-12-18T08:43:28;0.60;;;0.60;;
53598;SDS011;39485;45.702;11.364;2022-12-18T08:46:12;0.73;;;0.73;;
53598;SDS011;39485;45.702;11.364;2022-12-18T08:48:41;1.40;;;1.23;;
53598;SDS011;39485;45.702;11.364;2022-12-18T08:51:06;0.60;;;0.60;;
53598;SDS011;39485;45.702;11.364;2022-12-18T08:53:34;0.37;;;0.37;;
53598;SDS011;39485;45.702;11.364;2022-12-18T08:56:00;0.30;;;0.30;;
53598;SDS011;39485;45.702;11.364;2022-12-18T08:58:26;1.40;;;0.70;;
53598;SDS011;39485;45.702;11.364;2022-12-18T09:00:52;0.40;;;0.40;;
53598;SDS011;39485;45.702;11.364;2022-12-18T09:03:18;0.70;;;0.70;;
53598;SDS011;39485;45.702;11.364;2022-12-18T09:05:47;0.20;;;0.20;;
53598;SDS011;39485;45.702;11.364;2022-12-18T09:08:13;0.33;;;0.33;;
53598;SDS011;39485;45.702;11.364;2022-12-18T09:10:42;0.33;;;0.33;;
53598;SDS011;39485;45.702;11.364;2022-12-18T09:13:10;0.43;;;0.43;;
53598;SDS011;39485;45.702;11.364;2022-12-18T09:15:40;0.40;;;0.40;;
53598;SDS011;39485;45.702;11.364;2022-12-18T09:18:14;0.70;;;0.70;;
53598;SDS011;39485;45.702;11.364;2022-12-18T09:20:40;0.30;;;0.30;;
53598;SDS011;39485;45.702;11.364;2022-12-18T09:23:06;0.23;;;0.23;;
53598;SDS011;39485;45.702;11.364;2022-12-18T09:25:32;0.87;;;0.87;;
53598;SDS011;39485;45.702;11.364;2022-12-18T09:28:00;0.30;;;0.30;;
53598;SDS011;39485;45.702;11.364;2022-12-18T09:30:43;0.50;;;0.50;;
53598;SDS011;39485;45.702;11.364;2022-12-18T09:33:11;0.70;;;0.70;;
53598;SDS011;39485;45.702;11.364;2022-12-18T09:35:38;0.40;;;0.40;;
53598;SDS011;39485;45.702;11.364;2022-12-18T09:38:06;0.10;;;0.10;;
53598;SDS011;39485;45.702;11.364;2022-12-18T09:40:39;0.77;;;0.60;;
53598;SDS011;39485;45.702;11.364;2022-12-18T09:43:18;0.63;;;0.63;;
53598;SDS011;39485;45.702;11.364;2022-12-18T09:45:53;0.20;;;0.20;;
53598;SDS011;39485;45.702;11.364;2022-12-18T09:48:42;0.77;;;0.77;;
53598;SDS011;39485;45.702;11.364;2022-12-18T09:51:12;0.40;;;0.40;;
53598;SDS011;39485;45.702;11.364;2022-12-18T09:56:40;0.32;;;0.32;;
53598;SDS011;39485;45.702;11.364;2022-12-18T09:59:14;0.53;;;0.53;;
53598;SDS011;39485;45.702;11.364;2022-12-18T10:01:48;0.37;;;0.37;;
53598;SDS011;39485;45.702;11.364;2022-12-18T10:04:14;0.75;;;0.75;;
53598;SDS011;39485;45.702;11.364;2022-12-18T10:20:45;0.17;;;0.17;;
53598;SDS011;39485;45.702;11.364;2022-12-18T10:28:33;0.83;;;0.67;;
53598;SDS011;39485;45.702;11.364;2022-12-18T10:31:02;0.30;;;0.30;;
53598;SDS011;39485;45.702;11.364;2022-12-18T10:33:30;0.67;;;0.67;;
53598;SDS011;39485;45.702;11.364;2022-12-18T10:35:57;0.33;;;0.33;;
53598;SDS011;39485;45.702;11.364;2022-12-18T10:43:30;0.20;;;0.20;;
53598;SDS011;39485;45.702;11.364;2022-12-18T10:48:27;0.10;;;0.10;;
53598;SDS011;39485;45.702;11.364;2022-12-18T10:50:55;0.40;;;0.40;;
53598;SDS011;39485;45.702;11.364;2022-12-18T10:53:25;0.65;;;0.65;;
53598;SDS011;39485;45.702;11.364;2022-12-18T10:55:53;0.28;;;0.28;;
53598;SDS011;39485;45.702;11.364;2022-12-18T11:34:35;0.30;;;0.30;;
53598;SDS011;39485;45.702;11.364;2022-12-18T11:37:01;0.30;;;0.30;;
53598;SDS011;39485;45.702;11.364;2022-12-18T11:39:33;0.32;;;0.32;;
53598;SDS011;39485;45.702;11.364;2022-12-18T11:47:52;7.53;;;0.85;;
53598;SDS011;39485;45.702;11.364;2022-12-18T11:50:46;1.08;;;1.08;;
53598;SDS011;39485;45.702;11.364;2022-12-18T11:53:16;0.20;;;0.20;;
53598;SDS011;39485;45.702;11.364;2022-12-18T11:58:37;0.90;;;0.90;;
53598;SDS011;39485;45.702;11.364;2022-12-18T12:07:04;0.43;;;0.43;;
53598;SDS011;39485;45.702;11.364;2022-12-18T12:09:53;0.60;;;0.60;;
53598;SDS011;39485;45.702;11.364;2022-12-18T12:12:52;0.82;;;0.82;;
53598;SDS011;39485;45.702;11.364;2022-12-18T12:15:25;0.75;;;0.52;;
53598;SDS011;39485;45.702;11.364;2022-12-18T12:40:18;0.73;;;0.70;;
53598;SDS011;39485;45.702;11.364;2022-12-18T12:42:58;0.52;;;0.52;;
53598;SDS011;39485;45.702;11.364;2022-12-18T12:45:40;0.57;;;0.57;;
53598;SDS011;39485;45.702;11.364;2022-12-18T12:48:20;0.55;;;0.47;;
53598;SDS011;39485;45.702;11.364;2022-12-18T12:51:01;0.38;;;0.38;;
53598;SDS011;39485;45.702;11.364;2022-12-18T12:53:34;0.73;;;0.57;;
53598;SDS011;39485;45.702;11.364;2022-12-18T12:56:03;0.10;;;0.10;;
53598;SDS011;39485;45.702;11.364;2022-12-18T13:01:35;0.50;;;0.50;;
53598;SDS011;39485;45.702;11.364;2022-12-18T13:04:03;0.25;;;0.25;;
53598;SDS011;39485;45.702;11.364;2022-12-18T13:06:58;0.90;;;0.73;;
53598;SDS011;39485;45.702;11.364;2022-12-18T13:09:29;0.77;;;0.45;;
53598;SDS011;39485;45.702;11.364;2022-12-18T13:12:01;0.32;;;0.32;;
53598;SDS011;39485;45.702;11.364;2022-12-18T13:14:49;0.20;;;0.20;;
53598;SDS011;39485;45.702;11.364;2022-12-18T13:19:42;1.08;;;1.00;;
53598;SDS011;39485;45.702;11.364;2022-12-18T13:24:48;0.28;;;0.28;;
53598;SDS011;39485;45.702;11.364;2022-12-18T14:48:53;1.25;;;1.15;;
53598;SDS011;39485;45.702;11.364;2022-12-18T15:01:29;1.23;;;1.23;;
53598;SDS011;39485;45.702;11.364;2022-12-18T15:04:04;1.10;;;1.03;;
53598;SDS011;39485;45.702;11.364;2022-12-18T15:06:46;1.17;;;1.17;;
53598;SDS011;39485;45.702;11.364;2022-12-18T15:09:21;3.53;;;1.90;;
53598;SDS011;39485;45.702;11.364;2022-12-18T15:11:49;3.27;;;2.70;;
53598;SDS011;39485;45.702;11.364;2022-12-18T15:16:53;1.93;;;1.83;;
53598;SDS011;39485;45.702;11.364;2022-12-18T15:19:20;2.00;;;1.63;;
53598;SDS011;39485;45.702;11.364;2022-12-18T15:21:50;6.77;;;1.97;;
53598;SDS011;39485;45.702;11.364;2022-12-18T15:24:23;1.07;;;1.07;;
53598;SDS011;39485;45.702;11.364;2022-12-18T15:26:52;2.40;;;2.20;;
53598;SDS011;39485;45.702;11.364;2022-12-18T15:29:19;0.93;;;0.93;;
53598;SDS011;39485;45.702;11.364;2022-12-18T15:32:14;0.97;;;0.90;;
53598;SDS011;39485;45.702;11.364;2022-12-18T15:34:43;2.10;;;1.43;;
53598;SDS011;39485;45.702;11.364;2022-12-18T15:37:08;2.60;;;2.23;;
53598;SDS011;39485;45.702;11.364;2022-12-18T15:39:34;1.97;;;1.77;;
53598;SDS011;39485;45.702;11.364;2022-12-18T15:42:01;2.70;;;1.77;;
53598;SDS011;39485;45.702;11.364;2022-12-18T15:44:45;5.28;;;2.25;;
53598;SDS011;39485;45.702;11.364;2022-12-18T15:47:11;2.40;;;2.20;;
53598;SDS011;39485;45.702;11.364;2022-12-18T15:49:38;1.40;;;1.40;;
53598;SDS011;39485;45.702;11.364;2022-12-18T15:52:04;0.87;;;0.87;;
53598;SDS011;39485;45.702;11.364;2022-12-18T15:54:30;2.23;;;1.47;;
53598;SDS011;39485;45.702;11.364;2022-12-18T15:57:15;1.35;;;1.25;;
53598;SDS011;39485;45.702;11.364;2022-12-18T15:59:50;1.85;;;1.75;;
53598;SDS011;39485;45.702;11.364;2022-12-18T16:02:21;1.17;;;1.00;;
53598;SDS011;39485;45.702;11.364;2022-12-18T16:04:48;2.37;;;2.17;;
53598;SDS011;39485;45.702;11.364;2022-12-18T16:07:14;6.73;;;2.10;;
53598;SDS011;39485;45.702;11.364;2022-12-18T16:09:40;1.30;;;1.30;;
53598;SDS011;39485;45.702;11.364;2022-12-18T16:12:09;1.53;;;1.43;;
53598;SDS011;39485;45.702;11.364;2022-12-18T16:14:46;2.50;;;2.30;;
53598;SDS011;39485;45.702;11.364;2022-12-18T16:17:12;1.70;;;1.60;;
53598;SDS011;39485;45.702;11.364;2022-12-18T16:19:39;2.43;;;2.07;;
53598;SDS011;39485;45.702;11.364;2022-12-18T16:22:05;2.90;;;2.70;;
53598;SDS011;39485;45.702;11.364;2022-12-18T16:24:32;2.17;;;2.07;;
53598;SDS011;39485;45.702;11.364;2022-12-18T16:27:01;2.53;;;2.23;;
53598;SDS011;39485;45.702;11.364;2022-12-18T16:29:27;2.80;;;2.03;;
53598;SDS011;39485;45.702;11.364;2022-12-18T16:31:54;2.87;;;2.67;;
53598;SDS011;39485;45.702;11.364;2022-12-18T16:34:21;1.47;;;1.37;;
53598;SDS011;39485;45.702;11.364;2022-12-18T16:36:51;1.73;;;1.60;;
53598;SDS011;39485;45.702;11.364;2022-12-18T16:39:21;2.63;;;2.43;;
53598;SDS011;39485;45.702;11.364;2022-12-18T16:41:47;4.03;;;2.33;;
53598;SDS011;39485;45.702;11.364;2022-12-18T16:44:13;1.20;;;1.20;;
53598;SDS011;39485;45.702;11.364;2022-12-18T16:46:39;1.10;;;1.10;;
53598;SDS011;39485;45.702;11.364;2022-12-18T16:49:10;4.43;;;2.50;;
53598;SDS011;39485;45.702;11.364;2022-12-18T16:51:37;2.57;;;2.37;;
53598;SDS011;39485;45.702;11.364;2022-12-18T16:54:03;2.10;;;2.00;;
53598;SDS011;39485;45.702;11.364;2022-12-18T16:56:29;1.43;;;1.43;;
53598;SDS011;39485;45.702;11.364;2022-12-18T16:58:56;1.23;;;1.13;;
53598;SDS011;39485;45.702;11.364;2022-12-18T17:01:23;2.23;;;2.13;;
53598;SDS011;39485;45.702;11.364;2022-12-18T17:03:54;1.57;;;1.50;;
53598;SDS011;39485;45.702;11.364;2022-12-18T17:06:21;1.03;;;1.03;;
53598;SDS011;39485;45.702;11.364;2022-12-18T17:08:52;6.30;;;2.57;;
53598;SDS011;39485;45.702;11.364;2022-12-18T17:11:23;9.38;;;3.15;;
53598;SDS011;39485;45.702;11.364;2022-12-18T17:13:50;6.03;;;2.50;;
53598;SDS011;39485;45.702;11.364;2022-12-18T17:16:16;1.20;;;1.17;;
53598;SDS011;39485;45.702;11.364;2022-12-18T17:18:42;6.80;;;2.43;;
53598;SDS011;39485;45.702;11.364;2022-12-18T17:21:08;0.97;;;0.97;;
53598;SDS011;39485;45.702;11.364;2022-12-18T17:23:35;2.47;;;2.30;;
53598;SDS011;39485;45.702;11.364;2022-12-18T17:26:02;1.63;;;1.63;;
53598;SDS011;39485;45.702;11.364;2022-12-18T17:28:31;6.83;;;1.87;;
53598;SDS011;39485;45.702;11.364;2022-12-18T17:30:57;1.20;;;1.20;;
53598;SDS011;39485;45.702;11.364;2022-12-18T17:33:23;7.00;;;1.57;;
53598;SDS011;39485;45.702;11.364;2022-12-18T17:35:49;2.67;;;2.47;;
53598;SDS011;39485;45.702;11.364;2022-12-18T17:38:15;1.67;;;1.40;;
53598;SDS011;39485;45.702;11.364;2022-12-18T17:40:41;12.17;;;2.40;;
53598;SDS011;39485;45.702;11.364;2022-12-18T17:43:07;2.83;;;2.00;;
53598;SDS011;39485;45.702;11.364;2022-12-18T17:45:35;0.97;;;0.97;;
53598;SDS011;39485;45.702;11.364;2022-12-18T17:48:04;2.57;;;2.27;;
53598;SDS011;39485;45.702;11.364;2022-12-18T17:50:31;0.90;;;0.90;;
53598;SDS011;39485;45.702;11.364;2022-12-18T17:52:58;5.03;;;2.10;;
53598;SDS011;39485;45.702;11.364;2022-12-18T17:55:24;2.03;;;1.93;;
53598;SDS011;39485;45.702;11.364;2022-12-18T17:57:50;2.43;;;2.23;;
53598;SDS011;39485;45.702;11.364;2022-12-18T18:00:16;2.43;;;2.30;;
53598;SDS011;39485;45.702;11.364;2022-12-18T18:02:42;1.13;;;1.10;;
53598;SDS011;39485;45.702;11.364;2022-12-18T18:05:08;1.93;;;1.83;;
53598;SDS011;39485;45.702;11.364;2022-12-18T18:07:35;2.20;;;1.90;;
53598;SDS011;39485;45.702;11.364;2022-12-18T18:10:01;1.17;;;1.17;;
53598;SDS011;39485;45.702;11.364;2022-12-18T18:12:27;2.27;;;2.10;;
53598;SDS011;39485;45.702;11.364;2022-12-18T18:15:11;2.20;;;1.40;;
53598;SDS011;39485;45.702;11.364;2022-12-18T18:17:37;1.43;;;1.43;;
53598;SDS011;39485;45.702;11.364;2022-12-18T18:20:03;2.73;;;2.47;;
53598;SDS011;39485;45.702;11.364;2022-12-18T18:22:30;1.40;;;1.40;;
53598;SDS011;39485;45.702;11.364;2022-12-18T18:24:57;3.03;;;2.83;;
53598;SDS011;39485;45.702;11.364;2022-12-18T18:27:23;1.50;;;1.40;;
53598;SDS011;39485;45.702;11.364;2022-12-18T18:29:49;1.23;;;1.23;;
53598;SDS011;39485;45.702;11.364;2022-12-18T18:32:15;4.63;;;4.07;;
53598;SDS011;39485;45.702;11.364;2022-12-18T18:34:40;2.20;;;1.80;;
53598;SDS011;39485;45.702;11.364;2022-12-18T18:37:06;2.20;;;2.10;;
53598;SDS011;39485;45.702;11.364;2022-12-18T18:39:34;1.73;;;1.63;;
53598;SDS011;39485;45.702;11.364;2022-12-18T18:42:00;5.33;;;2.03;;
53598;SDS011;39485;45.702;11.364;2022-12-18T18:44:26;2.00;;;1.90;;